Time;durP1;ratioP1;P1;durP2;ratioP2;P2;SDS_P1;SDS_P2;PMS_P1;PMS_P2;Temp;Humidity;BMP_temperature;BMP_pressure;BME280_temperature;BME280_humidity;BME280_pressure;Samples;Min_cycle;Max_cycle;Signal;HPM_P1;HPM_P2
2022/11/06 00:01:11;;;;;;;13.25;9.25;;;11.60;1.00;;;;;;5105990;28;20472;-61
2022/11/06 00:03:37;;;;;;;13.77;9.00;;;11.60;1.00;;;;;;5104035;27;20023;-61
2022/11/06 00:08:57;;;;;;;14.30;8.65;;;11.70;1.00;;;;;;5102710;28;20557;-61
2022/11/06 00:11:23;;;;;;;16.83;9.07;;;11.70;1.00;;;;;;5115822;28;20028;-61
2022/11/06 00:13:51;;;;;;;12.15;8.65;;;11.70;1.00;;;;;;5096878;28;20488;-61
2022/11/06 00:16:18;;;;;;;12.52;8.68;;;11.70;1.00;;;;;;5095126;28;20020;-62
2022/11/06 00:18:43;;;;;;;14.05;8.93;;;11.80;1.00;;;;;;5100474;28;20528;-62
2022/11/06 00:21:15;;;;;;;13.07;9.07;;;11.80;1.00;;;;;;5115155;28;20027;-62
2022/11/06 00:23:41;;;;;;;16.08;9.27;;;11.80;1.00;;;;;;5115328;28;20082;-61
2022/11/06 00:26:09;;;;;;;15.40;9.32;;;11.80;1.00;;;;;;5114728;28;20337;-62
2022/11/06 00:28:35;;;;;;;13.20;9.20;;;11.90;1.00;;;;;;5115026;28;20088;-62
2022/11/06 00:31:05;;;;;;;12.95;9.27;;;11.80;1.00;;;;;;5115272;28;20460;-62
2022/11/06 00:33:32;;;;;;;11.90;8.95;;;11.80;1.00;;;;;;5114462;28;20042;-62
2022/11/06 00:35:58;;;;;;;14.82;9.75;;;11.80;1.00;;;;;;5115127;28;20102;-62
2022/11/06 00:38:24;;;;;;;14.77;10.25;;;11.80;1.00;;;;;;5113875;28;20028;-62
2022/11/06 00:40:49;;;;;;;14.88;9.82;;;11.80;1.00;;;;;;5115305;28;20030;-62
2022/11/06 00:43:15;;;;;;;15.35;10.05;;;11.80;1.00;;;;;;5096104;27;20039;-62
2022/11/06 00:45:40;;;;;;;15.52;10.40;;;11.80;1.00;;;;;;5115104;28;20464;-62
2022/11/06 00:48:06;;;;;;;16.35;10.10;;;11.90;1.00;;;;;;5113686;28;20114;-62
2022/11/06 00:50:32;;;;;;;14.10;10.57;;;11.90;1.00;;;;;;5114318;28;20023;-62
2022/11/06 00:52:58;;;;;;;17.95;11.15;;;11.90;1.00;;;;;;5114151;28;20031;-62
2022/11/06 00:55:24;;;;;;;16.27;10.90;;;11.90;1.00;;;;;;5113527;28;20044;-61
2022/11/06 00:57:49;;;;;;;18.58;12.20;;;11.90;1.00;;;;;;5096284;28;20030;-62
2022/11/06 01:00:17;;;;;;;14.60;10.80;;;11.90;1.00;;;;;;5113931;28;20103;-62
2022/11/06 01:02:44;;;;;;;15.52;11.75;;;11.90;1.00;;;;;;5114722;28;20069;-62
2022/11/06 01:05:10;;;;;;;17.85;12.02;;;11.90;1.00;;;;;;5113699;28;20015;-62
2022/11/06 01:07:36;;;;;;;16.63;12.82;;;11.90;1.00;;;;;;5114370;28;20508;-61
2022/11/06 01:10:02;;;;;;;17.30;11.80;;;11.90;1.00;;;;;;5113803;28;20054;-62
2022/11/06 01:12:30;;;;;;;16.67;11.85;;;11.80;1.00;;;;;;5114456;28;20480;-62
2022/11/06 01:14:56;;;;;;;18.42;12.30;;;11.90;1.00;;;;;;5113778;28;20035;-62
2022/11/06 01:17:22;;;;;;;19.13;12.20;;;11.90;1.00;;;;;;5095076;28;20032;-62
2022/11/06 01:19:47;;;;;;;21.67;12.52;;;11.90;1.00;;;;;;5113058;28;20460;-62
2022/11/06 01:22:13;;;;;;;22.48;13.18;;;11.90;1.00;;;;;;5114823;28;20024;-62
2022/11/06 01:24:39;;;;;;;20.45;13.13;;;11.90;1.00;;;;;;5113266;28;20072;-62
2022/11/06 01:27:05;;;;;;;19.33;13.48;;;11.90;1.00;;;;;;5114256;28;20116;-62
2022/11/06 01:29:30;;;;;;;18.58;13.07;;;11.80;1.00;;;;;;5113268;28;20244;-62
2022/11/06 01:31:56;;;;;;;20.30;13.35;;;11.90;1.00;;;;;;5110559;28;20374;-62
2022/11/06 01:34:22;;;;;;;19.08;12.68;;;11.90;1.00;;;;;;5110754;27;20030;-62
2022/11/06 01:36:47;;;;;;;19.90;13.70;;;11.90;1.00;;;;;;5112734;28;20408;-62
2022/11/06 01:39:14;;;;;;;20.23;13.65;;;11.90;1.00;;;;;;5112882;28;20382;-62
2022/11/06 01:41:46;;;;;;;18.00;13.27;;;11.80;1.00;;;;;;5114094;28;20032;-62
2022/11/06 01:44:39;;;;;;;19.38;13.32;;;11.80;1.00;;;;;;5111921;27;20085;-62
2022/11/06 01:47:24;;;;;;;20.05;12.95;;;11.80;1.00;;;;;;5093029;28;20040;-62
2022/11/06 01:49:51;;;;;;;;;;;11.80;1.00;;;;;;5098684;28;20053;-62
2022/11/06 01:52:18;;;;;;;17.98;13.25;;;11.80;1.00;;;;;;5113509;28;19903;-62
2022/11/06 01:54:49;;;;;;;19.48;12.98;;;11.80;1.00;;;;;;5112752;28;20112;-62
2022/11/06 01:57:14;;;;;;;20.92;12.10;;;11.80;1.00;;;;;;5113554;28;20042;-62
2022/11/06 01:59:45;;;;;;;18.38;13.30;;;11.80;1.00;;;;;;5112559;28;20031;-62
2022/11/06 02:02:12;;;;;;;20.73;13.68;;;11.80;1.00;;;;;;5113513;28;20016;-62
2022/11/06 02:04:42;;;;;;;17.00;12.88;;;11.80;1.00;;;;;;5112950;28;20042;-62
2022/11/06 02:07:09;;;;;;;18.25;13.10;;;11.80;1.00;;;;;;5111855;28;20063;-62
2022/11/06 02:09:35;;;;;;;16.70;12.50;;;11.80;1.00;;;;;;5111703;28;20031;-62
2022/11/06 02:12:41;;;;;;;18.13;12.40;;;11.80;1.00;;;;;;5113431;28;20080;-62
2022/11/06 02:15:19;;;;;;;17.20;12.00;;;11.80;1.00;;;;;;5029457;28;20035;-62
2022/11/06 02:17:48;;;;;;;16.15;11.80;;;11.80;1.00;;;;;;5105568;28;20039;-62
2022/11/06 02:20:45;;;;;;;16.08;10.07;;;11.80;1.00;;;;;;5111936;27;20034;-62
2022/11/06 02:23:10;;;;;;;17.35;10.38;;;11.80;1.00;;;;;;5112355;28;20027;-62
2022/11/06 02:26:00;;;;;;;16.77;10.68;;;11.80;1.00;;;;;;5111890;28;20042;-62
2022/11/06 02:28:33;;;;;;;13.75;10.18;;;11.70;1.00;;;;;;5113376;28;20102;-62
2022/11/06 02:31:05;;;;;;;12.90;8.20;;;11.70;1.00;;;;;;5111775;28;20388;-61
2022/11/06 02:37:00;;;;;;;13.45;8.48;;;11.70;1.00;;;;;;5097374;27;20027;-62
2022/11/06 02:39:28;;;;;;;11.60;7.65;;;11.70;1.00;;;;;;5092897;28;20020;-62
2022/11/06 02:41:58;;;;;;;10.05;7.95;;;11.70;1.00;;;;;;5107835;28;20065;-62
2022/11/06 02:44:27;;;;;;;12.02;7.75;;;11.70;1.00;;;;;;5112955;28;20143;-62
2022/11/06 02:46:57;;;;;;;12.88;7.95;;;11.60;1.00;;;;;;5111661;28;20138;-62
2022/11/06 02:49:36;;;;;;;10.80;8.57;;;11.60;1.00;;;;;;5099600;28;20051;-62
2022/11/06 02:52:28;;;;;;;11.48;8.85;;;11.60;1.00;;;;;;5109020;28;20488;-62
2022/11/06 02:55:18;;;;;;;12.75;8.75;;;11.60;1.00;;;;;;5103330;28;20035;-62
2022/11/06 02:57:49;;;;;;;12.18;8.90;;;11.60;1.00;;;;;;5092202;28;20036;-62
2022/11/06 03:00:15;;;;;;;12.50;9.15;;;11.60;1.00;;;;;;5093477;28;20035;-62
2022/11/06 03:02:57;;;;;;;12.45;9.65;;;11.60;1.00;;;;;;5111233;28;20095;-62
2022/11/06 03:05:31;;;;;;;12.05;9.45;;;11.60;1.00;;;;;;5094727;28;20098;-62
2022/11/06 03:08:15;;;;;;;12.25;8.75;;;11.60;1.00;;;;;;5112570;28;20028;-62
2022/11/06 03:10:49;;;;;;;14.63;9.18;;;11.60;1.00;;;;;;5111673;28;20027;-62
2022/11/06 03:13:29;;;;;;;12.85;8.98;;;11.50;1.00;;;;;;5112583;28;20096;-63
2022/11/06 03:16:16;;;;;;;12.60;9.25;;;11.60;1.00;;;;;;5093138;28;20073;-62
2022/11/06 03:18:58;;;;;;;14.77;9.10;;;11.50;1.00;;;;;;5112137;28;20378;-62
2022/11/06 03:21:41;;;;;;;12.85;8.98;;;11.50;1.00;;;;;;5111569;28;20049;-63
2022/11/06 03:24:43;;;;;;;11.73;8.35;;;11.50;1.00;;;;;;5111931;28;20024;-62
2022/11/06 03:27:19;;;;;;;13.90;9.50;;;11.50;1.00;;;;;;5111363;28;20318;-62
2022/11/06 03:29:57;;;;;;;11.40;9.10;;;11.50;1.00;;;;;;5112658;28;20016;-63
2022/11/06 03:32:35;;;;;;;15.30;9.35;;;11.40;1.00;;;;;;5112043;28;20039;-63
2022/11/06 03:35:12;;;;;;;11.77;9.10;;;11.50;1.00;;;;;;5112223;28;20456;-62
2022/11/06 03:38:08;;;;;;;10.77;8.52;;;11.50;1.00;;;;;;5111069;28;20024;-62
2022/11/06 03:40:35;;;;;;;;;;;11.50;1.00;;;;;;5093309;28;20540;-62
2022/11/06 03:43:05;;;;;;;10.63;7.53;;;11.40;1.00;;;;;;5112345;28;19995;-62
2022/11/06 03:45:32;;;;;;;12.30;8.45;;;11.40;1.00;;;;;;5110504;28;20038;-62
2022/11/06 03:48:12;;;;;;;12.77;9.50;;;11.40;1.00;;;;;;5111807;28;20042;-62
2022/11/06 03:50:48;;;;;;;13.35;8.45;;;11.40;1.00;;;;;;5092634;28;20895;-62
2022/11/06 03:53:20;;;;;;;12.70;8.57;;;11.40;1.00;;;;;;5109973;28;20482;-62
2022/11/06 03:56:00;;;;;;;12.15;8.82;;;11.40;1.00;;;;;;5110329;28;20078;-62
2022/11/06 03:58:32;;;;;;;12.15;7.93;;;11.40;1.00;;;;;;5112070;28;20030;-64
2022/11/06 04:01:01;;;;;;;9.98;8.05;;;11.40;1.00;;;;;;5111835;28;20027;-62
2022/11/06 04:03:52;;;;;;;10.65;8.95;;;11.40;1.00;;;;;;5112051;28;20030;-62
2022/11/06 04:06:31;;;;;;;13.60;8.93;;;11.40;1.00;;;;;;5099818;28;20051;-62
2022/11/06 04:14:33;;;;;;;13.93;8.52;;;11.40;1.00;;;;;;5112895;28;20034;-62
2022/11/06 04:17:03;;;;;;;11.73;8.35;;;11.30;1.00;;;;;;5109265;28;20533;-62
2022/11/06 04:19:29;;;;;;;13.38;9.70;;;11.40;1.00;;;;;;5093017;28;20031;-62
2022/11/06 04:22:09;;;;;;;16.33;10.18;;;11.40;1.00;;;;;;5112421;28;20092;-62
2022/11/06 04:28:17;;;;;;;12.45;10.23;;;11.40;1.00;;;;;;5114833;28;20095;-62
2022/11/06 04:30:48;;;;;;;18.67;12.07;;;11.40;1.00;;;;;;5114663;27;20116;-62
2022/11/06 04:33:24;;;;;;;16.98;10.90;;;11.30;1.00;;;;;;5115512;28;20032;-62
2022/11/06 04:36:25;;;;;;;16.25;11.73;;;11.40;1.00;;;;;;5114907;28;20360;-62
2022/11/06 04:38:56;;;;;;;16.77;11.35;;;11.40;1.00;;;;;;5114973;28;20034;-62
2022/11/06 04:42:13;;;;;;;15.50;11.40;;;11.40;1.00;;;;;;5114067;27;20020;-62
2022/11/06 04:44:44;;;;;;;13.80;11.15;;;11.30;1.00;;;;;;5069618;28;20031;-62
2022/11/06 04:47:14;;;;;;;13.93;10.98;;;11.30;1.00;;;;;;5113271;28;20050;-62
2022/11/06 04:49:42;;;;;;;15.10;11.48;;;11.40;1.00;;;;;;5113394;28;20051;-61
2022/11/06 04:52:13;;;;;;;13.27;10.27;;;11.40;1.00;;;;;;5114146;28;20024;-62
2022/11/06 04:54:39;;;;;;;14.30;10.25;;;11.40;1.00;;;;;;5114669;28;20062;-61
2022/11/06 04:57:05;;;;;;;14.23;10.43;;;11.40;1.00;;;;;;5114532;28;20453;-62
2022/11/06 04:59:34;;;;;;;14.88;10.48;;;11.40;1.00;;;;;;5114451;28;20020;-62
2022/11/06 05:02:00;;;;;;;15.18;11.30;;;11.40;1.00;;;;;;5114225;28;20035;-62
2022/11/06 05:04:26;;;;;;;13.20;10.60;;;11.40;1.00;;;;;;5115048;28;20020;-62
2022/11/06 05:06:51;;;;;;;13.77;10.23;;;11.40;1.00;;;;;;5112979;28;20031;-62
2022/11/06 05:09:17;;;;;;;12.35;10.57;;;11.30;1.00;;;;;;5114634;28;20027;-62
2022/11/06 05:11:43;;;;;;;12.38;9.40;;;11.30;1.00;;;;;;5113919;28;20023;-62
2022/11/06 05:14:08;;;;;;;12.88;9.43;;;11.30;1.00;;;;;;5114090;28;20024;-62
2022/11/06 05:16:34;;;;;;;11.75;8.77;;;11.30;1.00;;;;;;5095284;28;20108;-62
2022/11/06 05:18:59;;;;;;;12.20;10.00;;;11.30;1.00;;;;;;5114352;28;20047;-62
2022/11/06 05:24:09;;;;;;;11.07;9.32;;;11.30;1.00;;;;;;5114637;28;20039;-62
2022/11/06 05:26:35;;;;;;;12.82;9.32;;;11.30;1.00;;;;;;5113315;28;20032;-64
2022/11/06 05:29:01;;;;;;;13.00;9.30;;;11.30;1.00;;;;;;5095703;28;20030;-62
2022/11/06 05:31:26;;;;;;;10.75;9.23;;;11.30;1.00;;;;;;5113354;28;20029;-63
2022/11/06 05:33:52;;;;;;;13.00;8.57;;;11.20;1.00;;;;;;5113407;28;20524;-62
2022/11/06 05:36:18;;;;;;;9.05;7.97;;;11.20;1.00;;;;;;5107102;28;20047;-62
2022/11/06 05:38:44;;;;;;;9.82;7.57;;;11.20;1.00;;;;;;5113683;28;20020;-62
2022/11/06 05:41:09;;;;;;;9.95;8.32;;;11.20;1.00;;;;;;5114273;28;20483;-62
2022/11/06 05:43:35;;;;;;;11.68;7.85;;;11.20;1.00;;;;;;5094238;28;20027;-62
2022/11/06 05:46:28;;;;;;;9.13;7.18;;;11.20;1.00;;;;;;5113019;28;20388;-62
2022/11/06 05:48:59;;;;;;;8.45;7.03;;;11.20;1.00;;;;;;5112095;28;20472;-62
2022/11/06 05:51:25;;;;;;;9.02;7.20;;;11.20;1.00;;;;;;5113603;28;20020;-62
2022/11/06 05:53:50;;;;;;;9.90;6.95;;;11.20;1.00;;;;;;5112554;28;20031;-62
2022/11/06 05:56:16;;;;;;;8.80;7.38;;;11.10;1.00;;;;;;5113397;28;20044;-62
2022/11/06 05:58:42;;;;;;;8.57;7.78;;;11.20;1.00;;;;;;5112668;28;20047;-62
2022/11/06 06:01:09;;;;;;;10.32;7.57;;;11.10;1.00;;;;;;5113705;28;20452;-62
2022/11/06 06:03:34;;;;;;;10.90;7.70;;;11.20;1.00;;;;;;5112633;28;20036;-62
2022/11/06 06:06:00;;;;;;;11.45;7.18;;;11.20;1.00;;;;;;5113575;28;20426;-62
2022/11/06 06:08:25;;;;;;;11.43;7.03;;;11.20;1.00;;;;;;5112385;28;20054;-62
2022/11/06 06:10:51;;;;;;;9.55;8.00;;;11.20;1.00;;;;;;5113055;28;20035;-62
2022/11/06 06:13:17;;;;;;;9.57;6.85;;;11.20;1.00;;;;;;5112761;28;20063;-62
2022/11/06 06:15:42;;;;;;;12.02;8.30;;;11.20;1.00;;;;;;5113234;28;20016;-62
2022/11/06 06:18:09;;;;;;;15.10;8.25;;;11.10;1.00;;;;;;5093998;28;20024;-62
2022/11/06 06:20:35;;;;;;;8.85;6.88;;;11.10;1.00;;;;;;5113114;28;20484;-62
2022/11/06 06:23:01;;;;;;;7.78;6.95;;;11.10;1.00;;;;;;5111792;28;20028;-62
2022/11/06 06:25:28;;;;;;;12.10;8.45;;;11.10;1.00;;;;;;5113049;28;20028;-62
2022/11/06 06:27:54;;;;;;;9.32;8.27;;;11.20;1.00;;;;;;5112368;28;20035;-62
2022/11/06 06:30:21;;;;;;;10.27;8.18;;;11.20;1.00;;;;;;5112889;28;20031;-62
2022/11/06 06:32:47;;;;;;;9.35;7.45;;;11.20;1.00;;;;;;5112121;28;20031;-62
2022/11/06 06:35:13;;;;;;;8.68;7.78;;;11.20;1.00;;;;;;5113138;28;20068;-62
2022/11/06 06:37:38;;;;;;;9.57;7.60;;;11.20;1.00;;;;;;5111719;28;20055;-62
2022/11/06 06:40:05;;;;;;;12.68;8.40;;;11.10;1.00;;;;;;5112793;28;20023;-62
2022/11/06 06:42:31;;;;;;;11.38;7.60;;;11.20;1.00;;;;;;5111817;28;20408;-62
2022/11/06 06:44:56;;;;;;;7.93;7.13;;;11.20;1.00;;;;;;5111901;28;20023;-62
2022/11/06 06:47:22;;;;;;;12.10;8.77;;;11.20;1.00;;;;;;5110606;28;20058;-63
2022/11/06 06:49:48;;;;;;;12.90;8.30;;;11.20;1.00;;;;;;5112765;28;20027;-62
2022/11/06 06:52:13;;;;;;;11.88;8.23;;;11.30;1.00;;;;;;5112120;28;20494;-63
2022/11/06 06:54:39;;;;;;;13.13;8.65;;;11.20;1.00;;;;;;5112801;28;20044;-63
2022/11/06 06:57:06;;;;;;;12.50;8.07;;;11.20;1.00;;;;;;5111986;28;20035;-62
2022/11/06 06:59:32;;;;;;;12.38;8.88;;;11.30;1.00;;;;;;5094480;28;20088;-62
2022/11/06 07:01:58;;;;;;;11.75;8.38;;;11.20;1.00;;;;;;5094022;28;20027;-63
2022/11/06 07:04:23;;;;;;;11.82;8.68;;;11.20;1.00;;;;;;5113318;28;20023;-62
2022/11/06 07:06:51;;;;;;;12.52;8.73;;;11.20;1.00;;;;;;5112060;28;20086;-62
2022/11/06 07:09:17;;;;;;;12.35;8.52;;;11.30;1.00;;;;;;5112160;28;20468;-62
2022/11/06 07:11:42;;;;;;;14.40;10.13;;;11.30;1.00;;;;;;5111675;28;20042;-62
2022/11/06 07:14:09;;;;;;;18.00;11.38;;;11.30;1.00;;;;;;5111739;28;20031;-62
2022/11/06 07:16:35;;;;;;;16.98;10.55;;;11.40;1.00;;;;;;5112357;28;20168;-62
2022/11/06 07:19:00;;;;;;;12.38;9.10;;;11.40;1.00;;;;;;5111801;28;20047;-63
2022/11/06 07:21:26;;;;;;;11.82;8.55;;;11.40;1.00;;;;;;5112525;28;20047;-62
2022/11/06 07:23:51;;;;;;;7.80;6.97;;;11.40;1.00;;;;;;5111619;28;20061;-62
2022/11/06 07:26:17;;;;;;;10.35;7.40;;;11.50;1.00;;;;;;5111473;28;20054;-62
2022/11/06 07:28:43;;;;;;;10.73;8.10;;;11.50;1.00;;;;;;5111157;28;20039;-63
2022/11/06 07:31:11;;;;;;;9.68;8.50;;;11.50;1.00;;;;;;5112596;28;20027;-63
2022/11/06 07:33:37;;;;;;;13.70;9.43;;;11.50;1.00;;;;;;5111522;28;20030;-63
2022/11/06 07:36:08;;;;;;;13.55;9.77;;;11.50;1.00;;;;;;5112501;28;20031;-62
2022/11/06 07:38:35;;;;;;;15.13;9.45;;;11.50;1.00;;;;;;5110973;28;20093;-62
2022/11/06 07:41:06;;;;;;;14.25;9.75;;;11.60;1.00;;;;;;5112158;28;20024;-62
2022/11/06 07:43:32;;;;;;;12.02;9.82;;;11.60;1.00;;;;;;5111360;28;20120;-62
2022/11/06 07:46:03;;;;;;;12.18;9.98;;;11.60;1.00;;;;;;5092051;28;20340;-62
2022/11/06 07:48:29;;;;;;;16.17;9.55;;;11.60;1.00;;;;;;5111624;28;20127;-62
2022/11/06 07:50:55;;;;;;;13.85;8.95;;;11.60;1.00;;;;;;5112090;28;20464;-63
2022/11/06 07:53:21;;;;;;;12.55;9.63;;;11.60;1.00;;;;;;5111154;28;20024;-62
2022/11/06 07:55:51;;;;;;;12.55;10.30;;;11.70;1.00;;;;;;5112443;28;20067;-63
2022/11/06 07:58:18;;;;;;;11.60;9.07;;;11.70;1.00;;;;;;5113333;28;20028;-63
2022/11/06 08:00:54;;;;;;;12.00;9.27;;;11.70;1.00;;;;;;5115571;28;20026;-62
2022/11/06 08:03:20;;;;;;;12.93;9.35;;;11.70;1.00;;;;;;5114507;28;20036;-62
2022/11/06 08:05:46;;;;;;;14.30;10.13;;;11.80;1.00;;;;;;5114868;28;20023;-62
2022/11/06 08:08:12;;;;;;;11.23;9.40;;;11.80;1.00;;;;;;5115098;28;20392;-62
2022/11/06 08:10:42;;;;;;;15.73;9.60;;;11.80;1.00;;;;;;5115871;28;20079;-62
2022/11/06 08:13:14;;;;;;;11.50;9.63;;;11.80;1.00;;;;;;5115303;28;20384;-62
2022/11/06 08:15:41;;;;;;;13.43;9.55;;;11.80;1.00;;;;;;5115661;28;20027;-62
2022/11/06 08:18:08;;;;;;;15.48;10.32;;;11.90;1.00;;;;;;5114764;28;20098;-62
2022/11/06 08:20:35;;;;;;;13.02;9.30;;;11.90;1.00;;;;;;5115397;28;20026;-62
2022/11/06 08:23:02;;;;;;;12.73;8.43;;;11.90;1.00;;;;;;5096021;28;20468;-62
2022/11/06 08:25:28;;;;;;;8.88;7.40;;;12.00;1.00;;;;;;5115440;28;20348;-62
2022/11/06 08:27:58;;;;;;;10.20;8.25;;;12.00;1.00;;;;;;5114172;28;20059;-62
2022/11/06 08:30:25;;;;;;;10.27;8.25;;;12.00;1.00;;;;;;5114984;28;20047;-62
2022/11/06 08:32:51;;;;;;;8.40;7.38;;;12.00;1.00;;;;;;5114738;28;20448;-62
2022/11/06 08:35:17;;;;;;;11.35;7.78;;;12.00;1.00;;;;;;5096933;28;20039;-63
2022/11/06 08:37:42;;;;;;;13.68;8.07;;;12.10;1.00;;;;;;5096135;27;20051;-62
2022/11/06 08:40:09;;;;;;;14.30;9.43;;;12.10;1.00;;;;;;5114957;28;20358;-62
2022/11/06 08:42:34;;;;;;;11.52;7.53;;;12.20;1.00;;;;;;5114174;28;20468;-62
2022/11/06 08:45:00;;;;;;;8.68;7.30;;;12.20;1.00;;;;;;5114481;28;20073;-63
2022/11/06 08:47:25;;;;;;;10.27;7.97;;;12.20;1.00;;;;;;5113821;28;20118;-62
2022/11/06 08:49:51;;;;;;;10.00;7.80;;;12.30;1.00;;;;;;5114368;27;20032;-62
2022/11/06 08:52:16;;;;;;;9.43;8.27;;;12.30;1.00;;;;;;5114540;28;20487;-64
2022/11/06 08:54:42;;;;;;;8.82;7.70;;;12.30;1.00;;;;;;5111875;28;20043;-63
2022/11/06 08:57:07;;;;;;;12.73;8.55;;;12.40;1.00;;;;;;5114156;28;20469;-63
2022/11/06 08:59:33;;;;;;;9.88;7.55;;;12.40;1.00;;;;;;5114204;28;20115;-63
2022/11/06 09:01:59;;;;;;;9.55;7.78;;;12.40;1.00;;;;;;5114717;28;20034;-63
2022/11/06 09:04:25;;;;;;;11.50;8.45;;;12.40;1.00;;;;;;5094450;28;20027;-63
2022/11/06 09:06:51;;;;;;;9.52;7.10;;;12.40;1.00;;;;;;5114653;28;20035;-63
2022/11/06 09:09:41;;;;;;;12.23;7.97;;;12.50;1.00;;;;;;5113443;27;20574;-63
2022/11/06 09:12:07;;;;;;;8.40;6.55;;;12.50;1.00;;;;;;5114549;28;20023;-63
2022/11/06 09:14:33;;;;;;;10.30;7.25;;;12.50;1.00;;;;;;5113402;28;20138;-63
2022/11/06 09:16:59;;;;;;;11.65;8.85;;;12.50;1.00;;;;;;5113783;28;20126;-63
2022/11/06 09:19:25;;;;;;;13.07;9.50;;;12.60;1.00;;;;;;5113414;28;20774;-63
2022/11/06 09:21:50;;;;;;;10.85;8.18;;;12.70;1.00;;;;;;5113381;28;20038;-63
2022/11/06 09:24:16;;;;;;;10.52;7.97;;;12.70;1.00;;;;;;5113575;28;20034;-63
2022/11/06 09:26:42;;;;;;;10.68;7.60;;;12.80;1.00;;;;;;5113951;28;20165;-62
2022/11/06 09:29:07;;;;;;;11.38;8.48;;;12.90;1.00;;;;;;5113367;28;20032;-64
2022/11/06 09:31:33;;;;;;;10.95;8.15;;;13.00;1.00;;;;;;5113922;28;20040;-63
2022/11/06 09:33:58;;;;;;;8.80;7.75;;;13.00;1.00;;;;;;5111059;27;20491;-63
2022/11/06 09:36:24;;;;;;;10.65;8.38;;;13.10;1.00;;;;;;5093716;28;20020;-68
2022/11/06 09:38:49;;;;;;;8.40;6.88;;;13.20;1.00;;;;;;5102539;28;20037;-65
2022/11/06 09:41:31;;;;;;;11.80;7.22;;;13.20;1.00;;;;;;5113629;28;20028;-65
2022/11/06 09:44:05;;;;;;;10.85;7.30;;;13.20;1.00;;;;;;5112347;28;20039;-65
2022/11/06 09:46:42;;;;;;;8.73;6.85;;;13.30;1.00;;;;;;5112641;28;20036;-66
2022/11/06 09:49:10;;;;;;;12.23;6.68;;;13.20;1.00;;;;;;5093591;28;20028;-65
2022/11/06 09:51:45;;;;;;;8.35;6.40;;;13.30;1.00;;;;;;5113452;28;20019;-65
2022/11/06 09:54:27;;;;;;;7.75;6.72;;;13.40;1.00;;;;;;5112775;28;20032;-64
2022/11/06 09:57:18;;;;;;;9.75;7.55;;;13.50;1.00;;;;;;5113499;28;20048;-66
2022/11/06 09:59:45;;;;;;;11.75;7.20;;;13.50;1.00;;;;;;5112727;28;20084;-65
2022/11/06 10:02:42;;;;;;;8.13;6.53;;;13.50;1.00;;;;;;5113229;28;20019;-66
2022/11/06 10:05:42;;;;;;;8.55;6.35;;;13.50;1.00;;;;;;5087863;28;20169;-66
2022/11/06 10:08:20;;;;;;;10.32;6.68;;;13.60;1.00;;;;;;5091498;28;20126;-66
2022/11/06 10:11:05;;;;;;;9.48;7.32;;;13.60;1.00;;;;;;5112284;28;20051;-66
2022/11/06 10:13:43;;;;;;;;;;;13.50;1.00;;;;;;5094610;28;20032;-65
2022/11/06 10:16:25;;;;;;;11.73;7.03;;;13.50;1.00;;;;;;5113044;28;20384;-65
2022/11/06 10:19:15;;;;;;;8.98;7.20;;;13.50;1.00;;;;;;5112434;28;20035;-65
2022/11/06 10:21:50;;;;;;;8.93;6.30;;;13.50;1.00;;;;;;5112948;28;20426;-65
2022/11/06 10:24:37;;;;;;;8.95;6.97;;;13.50;1.00;;;;;;5112136;28;20449;-65
2022/11/06 10:27:10;;;;;;;9.98;7.05;;;13.50;1.00;;;;;;5112823;28;20046;-65
2022/11/06 10:30:07;;;;;;;11.32;6.65;;;13.60;1.00;;;;;;5112226;28;20458;-65
2022/11/06 10:33:09;;;;;;;10.02;7.13;;;13.60;1.00;;;;;;5112590;28;20032;-64
2022/11/06 10:35:36;;;;;;;9.55;7.68;;;13.70;1.00;;;;;;5111376;28;20062;-64
2022/11/06 10:38:07;;;;;;;8.07;6.60;;;13.80;1.00;;;;;;5093376;28;20386;-64
2022/11/06 10:40:34;;;;;;;11.40;6.97;;;13.90;1.00;;;;;;5094432;28;20502;-64
2022/11/06 10:43:05;;;;;;;11.30;6.70;;;14.00;1.00;;;;;;5111469;28;20398;-64
2022/11/06 10:45:35;;;;;;;11.48;7.13;;;14.10;1.00;;;;;;5092400;28;20040;-63
2022/11/06 10:48:18;;;;;;;9.13;6.78;;;14.10;1.00;;;;;;5091969;28;20063;-63
2022/11/06 10:51:24;;;;;;;9.35;6.45;;;14.20;1.00;;;;;;5092156;28;20020;-65
2022/11/06 10:53:56;;;;;;;11.23;6.85;;;14.30;1.00;;;;;;5098034;28;20058;-64
2022/11/06 10:56:47;;;;;;;9.95;7.32;;;14.30;1.00;;;;;;5112169;28;20130;-64
2022/11/06 10:59:15;;;;;;;10.38;7.10;;;14.40;1.00;;;;;;5112074;28;20047;-64
2022/11/06 11:01:41;;;;;;;10.05;7.13;;;14.40;1.00;;;;;;5111586;28;20035;-64
2022/11/06 11:04:06;;;;;;;10.52;6.97;;;14.50;1.00;;;;;;5111370;28;20081;-65
2022/11/06 11:06:32;;;;;;;10.10;7.45;;;14.60;1.00;;;;;;5112297;28;20434;-64
2022/11/06 11:08:57;;;;;;;10.32;6.85;;;14.60;1.00;;;;;;5111909;28;20034;-64
2022/11/06 11:11:25;;;;;;;10.90;7.15;;;14.70;1.00;;;;;;5111140;28;20460;-64
2022/11/06 11:14:00;;;;;;;11.45;7.22;;;14.70;1.00;;;;;;5111249;28;20046;-64
2022/11/06 11:16:33;;;;;;;14.23;6.57;;;14.80;1.00;;;;;;5110319;28;20034;-63
2022/11/06 11:19:25;;;;;;;9.35;6.50;;;14.80;1.00;;;;;;5111597;28;20031;-65
2022/11/06 11:21:58;;;;;;;13.10;8.70;;;14.80;1.00;;;;;;5111079;28;20032;-64
2022/11/06 11:24:25;;;;;;;12.70;8.90;;;14.80;1.00;;;;;;5112573;28;20020;-65
2022/11/06 11:26:52;;;;;;;10.85;7.68;;;14.90;1.00;;;;;;5111319;28;20410;-63
2022/11/06 11:29:28;;;;;;;10.45;6.75;;;14.90;1.00;;;;;;5092924;28;20031;-64
2022/11/06 11:32:01;;;;;;;10.50;7.07;;;14.90;1.00;;;;;;5095249;28;20496;-64
2022/11/06 11:34:33;;;;;;;8.27;6.55;;;15.00;1.00;;;;;;5116320;28;20133;-64
2022/11/06 11:37:01;;;;;;;9.05;6.38;;;15.00;1.00;;;;;;5115495;28;20042;-64
2022/11/06 11:39:45;;;;;;;8.98;6.50;;;15.00;1.00;;;;;;5116106;28;20041;-64
2022/11/06 11:42:30;;;;;;;9.15;6.30;;;15.10;1.00;;;;;;5115792;28;20024;-64
2022/11/06 11:45:07;;;;;;;;;;;15.10;1.00;;;;;;5116145;28;20084;-65
2022/11/06 11:47:35;;;;;;;9.85;6.05;;;15.10;1.00;;;;;;5114709;28;20280;-64
2022/11/06 11:50:32;;;;;;;10.75;5.95;;;15.10;1.00;;;;;;5116021;28;20409;-64
2022/11/06 11:53:10;;;;;;;12.77;7.68;;;15.20;1.00;;;;;;5115159;28;20020;-64
2022/11/06 11:55:40;;;;;;;10.75;6.75;;;15.20;1.00;;;;;;5099925;28;20378;-64
2022/11/06 11:58:27;;;;;;;8.00;5.70;;;15.20;1.00;;;;;;5115013;28;20136;-64
2022/11/06 12:00:53;;;;;;;10.15;6.95;;;15.30;1.00;;;;;;5116051;28;20050;-64
2022/11/06 12:03:19;;;;;;;10.43;6.43;;;15.30;1.00;;;;;;5115142;28;20476;-64
2022/11/06 12:05:45;;;;;;;10.07;6.50;;;15.30;1.00;;;;;;5097127;28;20143;-64
2022/11/06 12:08:20;;;;;;;10.38;5.97;;;15.30;1.00;;;;;;5114782;28;20392;-64
2022/11/06 12:10:46;;;;;;;10.38;7.00;;;15.30;1.00;;;;;;5115764;28;20475;-65
2022/11/06 12:13:11;;;;;;;11.75;6.47;;;15.30;1.00;;;;;;5114585;28;20052;-64
2022/11/06 12:15:52;;;;;;;10.57;6.68;;;15.30;1.00;;;;;;5115620;28;20051;-65
2022/11/06 12:18:26;;;;;;;11.45;6.97;;;15.30;1.00;;;;;;5114492;28;20065;-65
2022/11/06 12:21:01;;;;;;;8.50;6.57;;;15.30;1.00;;;;;;5113101;28;20073;-65
2022/11/06 12:23:49;;;;;;;10.85;6.63;;;15.30;1.00;;;;;;5114624;28;20333;-65
2022/11/06 12:26:35;;;;;;;10.95;7.07;;;15.30;1.00;;;;;;5115198;28;20074;-64
2022/11/06 12:29:15;;;;;;;15.10;9.60;;;15.30;1.00;;;;;;5093235;28;20054;-64
2022/11/06 12:31:48;;;;;;;9.90;7.63;;;15.40;1.00;;;;;;5096980;28;20039;-64
2022/11/06 12:34:26;;;;;;;13.18;7.97;;;15.40;1.00;;;;;;5114978;28;20076;-65
2022/11/06 12:37:17;;;;;;;12.40;8.48;;;15.40;1.00;;;;;;5114493;28;20028;-65
2022/11/06 12:39:46;;;;;;;16.08;9.48;;;15.40;1.00;;;;;;5114820;28;20380;-65
2022/11/06 12:42:14;;;;;;;14.82;8.63;;;15.40;1.00;;;;;;5113259;28;20027;-64
2022/11/06 12:44:39;;;;;;;12.25;7.72;;;15.50;1.00;;;;;;5114025;28;20111;-64
2022/11/06 12:47:18;;;;;;;15.02;8.77;;;15.50;1.00;;;;;;5114445;28;20098;-65
2022/11/06 12:50:11;;;;;;;12.85;7.22;;;15.40;1.00;;;;;;5096291;28;20030;-64
2022/11/06 12:53:00;;;;;;;13.15;7.55;;;15.50;1.00;;;;;;5114137;28;20023;-65
2022/11/06 12:55:32;;;;;;;14.85;7.00;;;15.60;1.00;;;;;;5114613;28;20040;-64
2022/11/06 12:58:09;;;;;;;12.93;7.25;;;15.60;1.00;;;;;;5114275;28;20034;-65
2022/11/06 13:00:56;;;;;;;12.20;7.32;;;15.60;1.00;;;;;;5114740;28;20322;-65
2022/11/06 13:04:07;;;;;;;11.77;7.13;;;15.70;1.00;;;;;;5113915;28;20553;-65
2022/11/06 13:06:35;;;;;;;11.60;7.80;;;15.70;1.00;;;;;;5093925;28;20036;-65
2022/11/06 13:09:01;;;;;;;12.23;7.65;;;15.70;1.00;;;;;;5114332;28;20114;-65
2022/11/06 13:11:51;;;;;;;13.98;8.88;;;15.70;1.00;;;;;;5113919;28;20107;-65
2022/11/06 13:14:37;;;;;;;13.95;8.38;;;15.70;1.00;;;;;;5093759;28;20339;-66
2022/11/06 13:17:05;;;;;;;13.80;7.30;;;15.70;1.00;;;;;;5096346;28;20114;-65
2022/11/06 13:19:40;;;;;;;14.45;8.38;;;15.70;1.00;;;;;;5100314;28;20031;-66
2022/11/06 13:22:36;;;;;;;14.55;8.05;;;15.70;1.00;;;;;;5095126;28;20155;-66
2022/11/06 13:25:24;;;;;;;12.45;7.93;;;15.70;1.00;;;;;;5114036;28;20069;-65
2022/11/06 13:28:15;;;;;;;13.15;8.30;;;15.60;1.00;;;;;;5113267;28;20047;-65
2022/11/06 13:30:42;;;;;;;14.32;8.38;;;15.60;1.00;;;;;;5114241;28;20345;-65